Accueil
METAR-TAF:

METAR-TAF

Aéroports :

Base aérienne de Nörvenich

Nörvenich, Allemagne

latitude: 50-50N, longitude: 006-40E, altitude: 118 m

Observation

Le bulletin a été fait il y a 46 minutes, à 19:28 UTC
Vent 4 kt de est
Température 3°C
Humidité 93%
Pression 1020 hPa
Visibilité: 9000 m
Nuages épars à une hauteur de 5000 ft

METAR: ETNN 261928Z 10004KT 9000 SCT050 03/02 Q1020 BLU+FCST CNL

Heure: 21:14 (20:14 UTC)

Prévision

Le bulletin a été fait il y a 2 heures et 54 minutes, à 17:20 UTC
Prévision valable du 26 à 18 UTC au 27 à 03 UTC
Vent 5 kt de est/sud-est
Visibilité 10 km ou plus
Nuages fragmentés à une hauteur de 3000 ft
Temporairement
du 26 à 19 UTC au 27 à 03 UTC
Vent 3 kt de sud/sud-est
Visibilité: 3500 m
Nuages fragmentés à une hauteur de 600 ft
Nuages fragmentés à une hauteur de 2000 ft
brume

TAF: ETNN 261720Z 2618/2703 12005KT 9999 NSW BKN030 TEMPO 2619/2703 15003KT 3500 BR BKN006 BKN020 BY ETGL

Observations et prévisions météorologiques de plus de 4000 aéroports (messages METAR et TAF).

Les stations disponibles sont représentées par des disques jaunes et rouges sur la carte.

Passer la souris dessus pour voir le nom de la station.

Cliquer dessus pour voir les observations et prévisions météorologiques.

Pour changer de carte: cliquez sur les boutons verts avec une croix noire pour zoomer, sur le bouton vert avec un tiret pour effectuer un zoom arrière, ou sur les flèches vertes pour les cartes adjacentes.


METAR-TAF: